createdAt,value
2023-05-07T00:05:08.416Z,100
2023-05-07T00:11:02.367Z,100
2023-05-07T00:16:54.579Z,100
2023-05-07T00:22:47.171Z,100
2023-05-07T00:28:38.406Z,100
2023-05-07T00:34:29.862Z,100
2023-05-07T00:40:22.103Z,100
2023-05-07T00:46:13.680Z,100
2023-05-07T00:52:06.528Z,100
2023-05-07T00:57:58.797Z,100
2023-05-07T01:03:51.399Z,100
2023-05-07T01:09:45.222Z,100
2023-05-07T01:15:36.820Z,100
2023-05-07T01:21:30.093Z,100
2023-05-07T01:27:22.218Z,100
2023-05-07T01:33:13.703Z,100
2023-05-07T01:39:06.637Z,100
2023-05-07T01:44:58.328Z,100
2023-05-07T01:50:50.827Z,100
2023-05-07T01:56:42.286Z,100
2023-05-07T02:02:34.739Z,100
2023-05-07T02:08:27.026Z,100
2023-05-07T02:14:18.818Z,100
2023-05-07T02:20:11.864Z,100
2023-05-07T02:26:02.536Z,100
2023-05-07T02:31:51.503Z,100
2023-05-07T02:37:44.444Z,100
2023-05-07T02:43:36.256Z,100
2023-05-07T02:49:28.445Z,100
2023-05-07T02:55:20.305Z,100
2023-05-07T03:01:12.738Z,100
2023-05-07T03:07:04.445Z,100
2023-05-07T03:12:57.533Z,100
2023-05-07T03:18:49.791Z,100
2023-05-07T03:24:41.346Z,100
2023-05-07T03:30:32.817Z,100
2023-05-07T03:36:26.335Z,100
2023-05-07T03:42:19.631Z,100
2023-05-07T03:48:12.462Z,100
2023-05-07T03:54:03.988Z,100
2023-05-07T03:59:56.628Z,100
2023-05-07T04:05:48.189Z,100
2023-05-07T04:11:40.311Z,100
2023-05-07T04:17:33.027Z,100
2023-05-07T04:23:25.020Z,100
2023-05-07T04:29:17.184Z,100
2023-05-07T04:35:09.133Z,100
2023-05-07T04:41:01.024Z,100
2023-05-07T04:46:53.298Z,100
2023-05-07T04:52:45.586Z,100
2023-05-07T04:58:38.933Z,100
2023-05-07T05:04:30.964Z,100
2023-05-07T05:10:25.666Z,100
2023-05-07T05:16:16.997Z,100
2023-05-07T05:22:09.338Z,100
2023-05-07T05:28:01.086Z,100
2023-05-07T05:33:53.113Z,100
2023-05-07T05:39:45.011Z,100
2023-05-07T05:45:36.702Z,100
2023-05-07T05:51:30.053Z,100
2023-05-07T05:57:22.627Z,100
2023-05-07T06:03:17.916Z,100
2023-05-07T06:09:12.452Z,100
2023-05-07T06:15:03.649Z,100
2023-05-07T06:20:55.629Z,100
2023-05-07T06:26:47.929Z,100
2023-05-07T06:32:40.618Z,100
2023-05-07T06:38:33.410Z,100
2023-05-07T06:45:31.510Z,100
2023-05-07T06:51:22.026Z,100
2023-05-07T06:57:14.282Z,100
2023-05-07T07:03:05.726Z,100
2023-05-07T07:08:56.180Z,100
2023-05-07T07:14:45.770Z,100
2023-05-07T07:20:35.852Z,100
2023-05-07T07:26:25.400Z,100
2023-05-07T07:32:16.503Z,100
2023-05-07T07:38:09.348Z,100
2023-05-07T07:44:03.269Z,100
2023-05-07T07:49:57.697Z,100
2023-05-07T07:55:49.499Z,100
2023-05-07T08:01:46.097Z,98.8
2023-05-07T08:07:40.635Z,96.7
2023-05-07T08:13:33.357Z,96.6
2023-05-07T08:19:28.012Z,94.9
2023-05-07T08:25:19.399Z,95.2
2023-05-07T08:31:12.694Z,94.1
2023-05-07T08:37:06.775Z,92.9
2023-05-07T08:42:59.295Z,89.9
2023-05-07T08:48:54.197Z,88.7
2023-05-07T08:54:47.080Z,88.7
2023-05-07T09:00:38.898Z,87.4
2023-05-07T09:06:31.449Z,87.1
2023-05-07T09:12:22.949Z,87.5
2023-05-07T09:18:18.818Z,85.9
2023-05-07T09:24:10.201Z,84.3
2023-05-07T09:29:59.756Z,83.1
2023-05-07T09:35:51.254Z,81.6
2023-05-07T09:41:44.603Z,79.4
2023-05-07T09:47:38.717Z,78.2
2023-05-07T09:53:30.403Z,76.1
2023-05-07T09:59:25.323Z,75.5
2023-05-07T10:05:26.830Z,74.3
2023-05-07T10:11:19.876Z,70.6
2023-05-07T10:17:11.577Z,72.5
2023-05-07T10:23:06.132Z,71.8
2023-05-07T10:28:56.621Z,71.6
2023-05-07T10:34:48.170Z,70.3
2023-05-07T10:40:41.436Z,69.7
2023-05-07T10:46:37.775Z,66.6
2023-05-07T10:52:30.308Z,65.2
2023-05-07T10:58:33.260Z,58.5
2023-05-07T11:04:23.956Z,59.9
2023-05-07T11:10:16.274Z,60.1
2023-05-07T11:16:08.547Z,58.7
2023-05-07T11:22:01.179Z,59.3
2023-05-07T11:27:55.814Z,60.6
2023-05-07T11:33:48.001Z,58.9
2023-05-07T11:39:41.379Z,56.3
2023-05-07T11:45:33.424Z,57.4
2023-05-07T11:51:24.759Z,55.9
2023-05-07T11:57:17.282Z,55.4
2023-05-07T12:03:09.017Z,55.7
2023-05-07T12:09:00.943Z,53.1
2023-05-07T12:14:52.097Z,51.7
2023-05-07T12:20:43.961Z,52.2
2023-05-07T12:26:37.850Z,48.8
2023-05-07T12:32:29.811Z,51
2023-05-07T12:38:22.004Z,51.2
2023-05-07T12:44:13.524Z,47.7
2023-05-07T12:50:05.405Z,46.5
2023-05-07T12:55:57.518Z,50.9
2023-05-07T13:01:49.600Z,52.8
2023-05-07T13:07:41.944Z,53.6
2023-05-07T13:13:34.614Z,54.9
2023-05-07T13:19:27.380Z,56.1
2023-05-07T13:25:19.287Z,55.4
2023-05-07T13:31:11.408Z,55.7
2023-05-07T13:37:03.036Z,55.2
2023-05-07T13:42:58.082Z,56.9
2023-05-07T13:48:49.957Z,58.1
2023-05-07T13:54:41.693Z,58.9
2023-05-07T14:00:33.132Z,60.3
2023-05-07T14:06:25.206Z,60.7
2023-05-07T14:12:16.374Z,63.3
2023-05-07T14:18:10.308Z,71.8
2023-05-07T14:24:01.872Z,83.5
2023-05-07T14:29:53.616Z,90.9
2023-05-07T14:35:45.027Z,91.9
2023-05-07T14:41:36.699Z,91
2023-05-07T14:47:28.570Z,91.4
2023-05-07T14:53:19.582Z,89.8
2023-05-07T14:59:10.627Z,93.3
2023-05-07T15:05:01.004Z,85.5
2023-05-07T15:10:52.872Z,92
2023-05-07T15:16:44.499Z,95.8
2023-05-07T15:22:38.463Z,96.6
2023-05-07T15:28:30.544Z,100
2023-05-07T15:34:21.602Z,100
2023-05-07T15:40:12.739Z,100
2023-05-07T15:46:07.909Z,98.1
2023-05-07T15:51:58.078Z,100
2023-05-07T15:57:49.786Z,100
2023-05-07T16:03:42.568Z,100
2023-05-07T16:09:34.907Z,100
2023-05-07T16:15:27.358Z,100
2023-05-07T16:21:19.026Z,100
2023-05-07T16:27:10.797Z,100
2023-05-07T16:33:04.502Z,100
2023-05-07T16:38:57.097Z,100
2023-05-07T16:44:48.748Z,100
2023-05-07T16:50:42.005Z,100
2023-05-07T16:56:34.368Z,100
2023-05-07T17:02:30.159Z,100
2023-05-07T17:08:24.532Z,100
2023-05-07T17:14:19.113Z,100
2023-05-07T17:20:12.324Z,100
2023-05-07T17:26:04.478Z,100
2023-05-07T17:31:55.750Z,100
2023-05-07T17:37:49.123Z,100
2023-05-07T17:43:40.906Z,100
2023-05-07T17:49:33.065Z,100
2023-05-07T17:55:28.314Z,100
2023-05-07T18:01:21.254Z,100
2023-05-07T18:07:15.112Z,100
2023-05-07T18:13:06.645Z,100
2023-05-07T18:18:58.849Z,100
2023-05-07T18:24:50.876Z,100
2023-05-07T18:30:43.393Z,100
2023-05-07T18:36:36.106Z,100
2023-05-07T18:42:30.500Z,100
2023-05-07T18:48:29.552Z,100
2023-05-07T18:54:21.170Z,100
2023-05-07T19:00:13.222Z,100
2023-05-07T19:06:08.196Z,100
2023-05-07T19:12:02.160Z,100
2023-05-07T19:17:53.242Z,100
2023-05-07T19:23:45.908Z,100
2023-05-07T19:29:37.594Z,100
2023-05-07T19:35:30.055Z,100
2023-05-07T19:41:22.133Z,100
2023-05-07T19:47:14.487Z,100
2023-05-07T19:53:07.854Z,100
2023-05-07T19:59:00.669Z,100
2023-05-07T20:04:51.927Z,100
2023-05-07T20:10:44.385Z,100
2023-05-07T20:16:36.025Z,100
2023-05-07T20:22:28.089Z,100
2023-05-07T20:28:19.609Z,100
2023-05-07T20:34:10.998Z,100
2023-05-07T20:40:03.990Z,100
2023-05-07T20:45:54.720Z,100
2023-05-07T20:51:47.985Z,100
2023-05-07T20:57:40.515Z,100
2023-05-07T21:03:30.583Z,100
2023-05-07T21:09:22.111Z,100
2023-05-07T21:15:13.822Z,100
2023-05-07T21:21:04.052Z,100
2023-05-07T21:26:58.263Z,100
2023-05-07T21:32:50.469Z,100
2023-05-07T21:38:42.878Z,100
2023-05-07T21:44:34.047Z,100
2023-05-07T21:50:26.596Z,100
2023-05-07T21:56:17.772Z,100
2023-05-07T22:02:09.834Z,100
2023-05-07T22:08:01.766Z,100
2023-05-07T22:13:53.112Z,100
2023-05-07T22:19:44.239Z,100
2023-05-07T22:25:36.232Z,100
2023-05-07T22:31:28.503Z,100
2023-05-07T22:37:22.224Z,100
2023-05-07T22:43:17.175Z,100
2023-05-07T22:49:08.551Z,100
2023-05-07T22:55:00.669Z,100
2023-05-07T23:00:50.587Z,100
2023-05-07T23:06:42.556Z,100
2023-05-07T23:12:35.033Z,100
2023-05-07T23:18:26.435Z,100
2023-05-07T23:24:20.134Z,100
2023-05-07T23:30:12.167Z,100
2023-05-07T23:36:05.567Z,100
2023-05-07T23:41:56.333Z,100
2023-05-07T23:47:48.725Z,100
2023-05-07T23:53:39.630Z,100
2023-05-07T23:59:32.263Z,100
